sensor_id;sensor_type;location;lat;lon;timestamp;pressure;altitude;pressure_sealevel;temperature;humidity
6389;BME280;3227;42.654;23.360;2023-03-14T00:00:50;94655.44;;;6.47;47.36
6389;BME280;3227;42.654;23.360;2023-03-14T00:03:17;94655.38;;;6.44;47.87
6389;BME280;3227;42.654;23.360;2023-03-14T00:05:44;94646.00;;;6.41;48.38
6389;BME280;3227;42.654;23.360;2023-03-14T00:08:11;94638.34;;;6.40;48.41
6389;BME280;3227;42.654;23.360;2023-03-14T00:10:39;94638.22;;;6.32;48.54
6389;BME280;3227;42.654;23.360;2023-03-14T00:13:06;94633.16;;;6.34;48.82
6389;BME280;3227;42.654;23.360;2023-03-14T00:15:33;94583.25;;;5.95;49.44
6389;BME280;3227;42.654;23.360;2023-03-14T00:18:00;94632.69;;;6.09;50.12
6389;BME280;3227;42.654;23.360;2023-03-14T00:20:27;94626.72;;;6.06;49.77
6389;BME280;3227;42.654;23.360;2023-03-14T00:22:54;94624.06;;;6.00;50.47
6389;BME280;3227;42.654;23.360;2023-03-14T00:25:21;94614.78;;;6.03;49.95
6389;BME280;3227;42.654;23.360;2023-03-14T00:27:51;94533.53;;;5.64;49.96
6389;BME280;3227;42.654;23.360;2023-03-14T00:30:18;94612.47;;;6.16;50.38
6389;BME280;3227;42.654;23.360;2023-03-14T00:32:45;94598.94;;;6.17;49.82
6389;BME280;3227;42.654;23.360;2023-03-14T00:35:11;94592.91;;;6.13;50.32
6389;BME280;3227;42.654;23.360;2023-03-14T00:37:38;94591.22;;;6.14;50.39
6389;BME280;3227;42.654;23.360;2023-03-14T00:40:06;94592.84;;;6.10;50.09
6389;BME280;3227;42.654;23.360;2023-03-14T00:42:34;94602.75;;;5.95;49.83
6389;BME280;3227;42.654;23.360;2023-03-14T00:45:03;94590.00;;;5.93;51.02
6389;BME280;3227;42.654;23.360;2023-03-14T00:47:30;94552.78;;;5.52;49.90
6389;BME280;3227;42.654;23.360;2023-03-14T00:49:57;94574.13;;;5.60;50.87
6389;BME280;3227;42.654;23.360;2023-03-14T00:52:23;94576.66;;;5.60;50.47
6389;BME280;3227;42.654;23.360;2023-03-14T00:54:50;94578.16;;;5.50;50.69
6389;BME280;3227;42.654;23.360;2023-03-14T00:57:17;94556.00;;;5.43;51.10
6389;BME280;3227;42.654;23.360;2023-03-14T00:59:44;94552.84;;;5.56;50.55
6389;BME280;3227;42.654;23.360;2023-03-14T01:02:12;94579.50;;;5.77;50.23
6389;BME280;3227;42.654;23.360;2023-03-14T01:04:38;94578.56;;;5.71;49.60
6389;BME280;3227;42.654;23.360;2023-03-14T01:07:08;94565.63;;;5.61;50.55
6389;BME280;3227;42.654;23.360;2023-03-14T01:09:35;94570.88;;;5.68;50.15
6389;BME280;3227;42.654;23.360;2023-03-14T01:12:02;94575.00;;;5.63;50.42
6389;BME280;3227;42.654;23.360;2023-03-14T01:14:28;94572.38;;;5.57;51.53
6389;BME280;3227;42.654;23.360;2023-03-14T01:16:55;94570.72;;;5.59;51.28
6389;BME280;3227;42.654;23.360;2023-03-14T01:19:27;94569.16;;;5.66;52.27
6389;BME280;3227;42.654;23.360;2023-03-14T01:21:54;94560.75;;;5.71;52.15
6389;BME280;3227;42.654;23.360;2023-03-14T01:24:21;94552.38;;;5.76;51.83
6389;BME280;3227;42.654;23.360;2023-03-14T01:26:48;94552.38;;;5.77;52.47
6389;BME280;3227;42.654;23.360;2023-03-14T01:29:14;94552.13;;;5.63;52.23
6389;BME280;3227;42.654;23.360;2023-03-14T01:31:41;94552.63;;;5.46;52.57
6389;BME280;3227;42.654;23.360;2023-03-14T01:34:08;94547.31;;;5.32;53.68
6389;BME280;3227;42.654;23.360;2023-03-14T01:36:36;94546.31;;;5.25;53.54
6389;BME280;3227;42.654;23.360;2023-03-14T01:39:03;94537.50;;;5.08;54.04
6389;BME280;3227;42.654;23.360;2023-03-14T01:41:31;94539.34;;;5.15;54.47
6389;BME280;3227;42.654;23.360;2023-03-14T01:43:58;94538.44;;;5.13;55.21
6389;BME280;3227;42.654;23.360;2023-03-14T01:46:32;94538.41;;;5.10;55.48
6389;BME280;3227;42.654;23.360;2023-03-14T01:49:04;94535.91;;;5.13;55.57
6389;BME280;3227;42.654;23.360;2023-03-14T01:51:38;94536.00;;;5.18;55.07
6389;BME280;3227;42.654;23.360;2023-03-14T01:54:12;94529.38;;;5.24;55.32
6389;BME280;3227;42.654;23.360;2023-03-14T01:56:43;94524.22;;;5.21;55.42
6389;BME280;3227;42.654;23.360;2023-03-14T01:59:12;94526.69;;;5.17;55.50
6389;BME280;3227;42.654;23.360;2023-03-14T02:01:43;94466.66;;;4.80;55.22
6389;BME280;3227;42.654;23.360;2023-03-14T02:04:11;94478.72;;;4.90;55.79
6389;BME280;3227;42.654;23.360;2023-03-14T02:06:46;94524.09;;;5.15;55.90
6389;BME280;3227;42.654;23.360;2023-03-14T02:09:14;94531.66;;;5.12;55.52
6389;BME280;3227;42.654;23.360;2023-03-14T02:11:42;94530.00;;;5.14;55.47
6389;BME280;3227;42.654;23.360;2023-03-14T02:14:16;94416.09;;;4.48;56.27
6389;BME280;3227;42.654;23.360;2023-03-14T02:16:45;94524.78;;;5.07;56.30
6389;BME280;3227;42.654;23.360;2023-03-14T02:19:13;94514.50;;;5.01;58.72
6389;BME280;3227;42.654;23.360;2023-03-14T02:21:52;94487.31;;;4.96;58.04
6389;BME280;3227;42.654;23.360;2023-03-14T02:24:25;94488.91;;;4.91;57.61
6389;BME280;3227;42.654;23.360;2023-03-14T02:27:18;94508.59;;;5.03;58.25
6389;BME280;3227;42.654;23.360;2023-03-14T02:29:51;94518.84;;;5.06;57.96
6389;BME280;3227;42.654;23.360;2023-03-14T02:32:20;94515.47;;;5.07;57.17
6389;BME280;3227;42.654;23.360;2023-03-14T02:34:50;94505.09;;;4.96;57.15
6389;BME280;3227;42.654;23.360;2023-03-14T02:37:19;94511.19;;;5.05;57.30
6389;BME280;3227;42.654;23.360;2023-03-14T02:39:48;94505.78;;;4.89;57.86
6389;BME280;3227;42.654;23.360;2023-03-14T02:42:15;94510.63;;;4.77;58.03
6389;BME280;3227;42.654;23.360;2023-03-14T02:44:53;94519.69;;;4.66;59.20
6389;BME280;3227;42.654;23.360;2023-03-14T02:47:23;94522.88;;;4.57;59.13
6389;BME280;3227;42.654;23.360;2023-03-14T02:49:57;94494.72;;;4.47;59.02
6389;BME280;3227;42.654;23.360;2023-03-14T02:52:25;94517.88;;;4.61;59.69
6389;BME280;3227;42.654;23.360;2023-03-14T02:54:52;94531.22;;;4.53;60.28
6389;BME280;3227;42.654;23.360;2023-03-14T02:57:19;94494.50;;;4.38;60.14
6389;BME280;3227;42.654;23.360;2023-03-14T02:59:48;94528.72;;;4.55;59.92
6389;BME280;3227;42.654;23.360;2023-03-14T03:02:16;94531.31;;;4.56;59.71
6389;BME280;3227;42.654;23.360;2023-03-14T03:04:43;94516.06;;;4.56;59.54
6389;BME280;3227;42.654;23.360;2023-03-14T03:07:10;94529.91;;;4.69;59.67
6389;BME280;3227;42.654;23.360;2023-03-14T03:09:42;94521.44;;;4.69;59.57
6389;BME280;3227;42.654;23.360;2023-03-14T03:12:09;94535.94;;;4.74;59.56
6389;BME280;3227;42.654;23.360;2023-03-14T03:14:36;94530.81;;;4.73;59.24
6389;BME280;3227;42.654;23.360;2023-03-14T03:17:03;94521.47;;;4.72;59.71
6389;BME280;3227;42.654;23.360;2023-03-14T03:19:32;94514.50;;;4.62;60.00
6389;BME280;3227;42.654;23.360;2023-03-14T03:21:59;94523.91;;;4.66;59.40
6389;BME280;3227;42.654;23.360;2023-03-14T03:24:26;94529.88;;;4.68;59.10
6389;BME280;3227;42.654;23.360;2023-03-14T03:26:53;94529.00;;;4.67;58.50
6389;BME280;3227;42.654;23.360;2023-03-14T03:29:20;94524.78;;;4.68;58.98
6389;BME280;3227;42.654;23.360;2023-03-14T03:31:47;94519.56;;;4.62;59.10
6389;BME280;3227;42.654;23.360;2023-03-14T03:34:18;94528.88;;;4.63;58.62
6389;BME280;3227;42.654;23.360;2023-03-14T03:36:46;94519.56;;;4.62;59.18
6389;BME280;3227;42.654;23.360;2023-03-14T03:39:12;94500.94;;;4.59;59.40
6389;BME280;3227;42.654;23.360;2023-03-14T03:41:39;94481.88;;;4.39;59.19
6389;BME280;3227;42.654;23.360;2023-03-14T03:44:06;94520.41;;;4.62;59.79
6389;BME280;3227;42.654;23.360;2023-03-14T03:46:33;94522.78;;;4.54;59.59
6389;BME280;3227;42.654;23.360;2023-03-14T03:49:00;94513.41;;;4.50;60.33
6389;BME280;3227;42.654;23.360;2023-03-14T03:51:27;94532.97;;;4.56;60.52
6389;BME280;3227;42.654;23.360;2023-03-14T03:53:55;94529.72;;;4.60;59.97
6389;BME280;3227;42.654;23.360;2023-03-14T03:56:22;94527.19;;;4.62;60.26
6389;BME280;3227;42.654;23.360;2023-03-14T03:58:49;94538.19;;;4.61;60.31
6389;BME280;3227;42.654;23.360;2023-03-14T04:01:16;94543.16;;;4.57;59.93
6389;BME280;3227;42.654;23.360;2023-03-14T04:03:43;94545.66;;;4.56;59.88
6389;BME280;3227;42.654;23.360;2023-03-14T04:06:11;94543.09;;;4.54;59.91
6389;BME280;3227;42.654;23.360;2023-03-14T04:08:38;94541.31;;;4.50;60.42
6389;BME280;3227;42.654;23.360;2023-03-14T04:11:07;94530.13;;;4.42;60.35
6389;BME280;3227;42.654;23.360;2023-03-14T04:13:34;94533.38;;;4.35;61.01
6389;BME280;3227;42.654;23.360;2023-03-14T04:16:00;94522.19;;;4.27;60.95
6389;BME280;3227;42.654;23.360;2023-03-14T04:18:27;94486.38;;;4.15;60.78
6389;BME280;3227;42.654;23.360;2023-03-14T04:20:56;94526.72;;;4.40;60.05
6389;BME280;3227;42.654;23.360;2023-03-14T04:23:24;94475.38;;;4.14;60.41
6389;BME280;3227;42.654;23.360;2023-03-14T04:25:51;94517.50;;;4.45;60.33
6389;BME280;3227;42.654;23.360;2023-03-14T04:28:20;94508.94;;;4.40;60.25
6389;BME280;3227;42.654;23.360;2023-03-14T04:30:46;94493.31;;;4.22;60.45
6389;BME280;3227;42.654;23.360;2023-03-14T04:33:13;94496.66;;;4.21;60.88
6389;BME280;3227;42.654;23.360;2023-03-14T04:35:42;94448.38;;;3.80;60.72
6389;BME280;3227;42.654;23.360;2023-03-14T04:38:09;94478.31;;;3.95;60.38
6389;BME280;3227;42.654;23.360;2023-03-14T04:40:36;94486.88;;;4.00;61.00
6389;BME280;3227;42.654;23.360;2023-03-14T04:43:03;94496.38;;;4.09;60.25
6389;BME280;3227;42.654;23.360;2023-03-14T04:45:32;94495.72;;;4.16;60.49
6389;BME280;3227;42.654;23.360;2023-03-14T04:47:58;94460.72;;;4.01;60.60
6389;BME280;3227;42.654;23.360;2023-03-14T04:50:25;94487.25;;;4.15;60.82
6389;BME280;3227;42.654;23.360;2023-03-14T04:52:52;94486.59;;;4.24;60.45
6389;BME280;3227;42.654;23.360;2023-03-14T04:55:19;94482.72;;;4.40;60.09
6389;BME280;3227;42.654;23.360;2023-03-14T04:57:45;94476.56;;;4.68;58.84
6389;BME280;3227;42.654;23.360;2023-03-14T05:00:13;94476.88;;;4.83;58.13
6389;BME280;3227;42.654;23.360;2023-03-14T05:02:41;94472.75;;;4.88;57.85
6389;BME280;3227;42.654;23.360;2023-03-14T05:05:08;94473.91;;;5.04;57.76
6389;BME280;3227;42.654;23.360;2023-03-14T05:07:35;94477.44;;;5.10;56.95
6389;BME280;3227;42.654;23.360;2023-03-14T05:10:01;94464.69;;;5.07;57.29
6389;BME280;3227;42.654;23.360;2023-03-14T05:12:28;94477.53;;;5.15;57.45
6389;BME280;3227;42.654;23.360;2023-03-14T05:14:55;94476.91;;;5.26;57.22
6389;BME280;3227;42.654;23.360;2023-03-14T05:17:22;94475.00;;;5.60;55.61
6389;BME280;3227;42.654;23.360;2023-03-14T05:19:50;94469.00;;;6.06;54.41
6389;BME280;3227;42.654;23.360;2023-03-14T05:22:17;94476.47;;;6.49;53.30
6389;BME280;3227;42.654;23.360;2023-03-14T05:24:43;94476.19;;;6.92;53.16
6389;BME280;3227;42.654;23.360;2023-03-14T05:27:10;94413.19;;;6.78;51.91
6389;BME280;3227;42.654;23.360;2023-03-14T05:29:37;94472.47;;;7.38;51.43
6389;BME280;3227;42.654;23.360;2023-03-14T05:32:04;94468.44;;;7.59;51.19
6389;BME280;3227;42.654;23.360;2023-03-14T05:34:31;94459.41;;;7.89;50.05
6389;BME280;3227;42.654;23.360;2023-03-14T05:36:59;94470.72;;;8.24;48.76
6389;BME280;3227;42.654;23.360;2023-03-14T05:39:26;94456.50;;;8.52;48.32
6389;BME280;3227;42.654;23.360;2023-03-14T05:41:52;94466.03;;;8.82;47.42
6389;BME280;3227;42.654;23.360;2023-03-14T05:44:21;94406.41;;;8.72;46.84
6389;BME280;3227;42.654;23.360;2023-03-14T05:46:49;94414.16;;;8.95;46.30
6389;BME280;3227;42.654;23.360;2023-03-14T05:49:16;94468.91;;;9.64;45.52
6389;BME280;3227;42.654;23.360;2023-03-14T05:51:43;94469.00;;;9.95;45.49
6389;BME280;3227;42.654;23.360;2023-03-14T05:54:12;94467.31;;;10.12;44.55
6389;BME280;3227;42.654;23.360;2023-03-14T05:56:38;94471.59;;;10.25;43.99
6389;BME280;3227;42.654;23.360;2023-03-14T05:59:05;94458.81;;;10.20;44.58
6389;BME280;3227;42.654;23.360;2023-03-14T06:01:34;94468.19;;;10.32;43.23
6389;BME280;3227;42.654;23.360;2023-03-14T06:04:01;94466.47;;;10.26;43.12
6389;BME280;3227;42.654;23.360;2023-03-14T06:06:28;94451.03;;;9.82;42.66
6389;BME280;3227;42.654;23.360;2023-03-14T06:08:54;94470.69;;;9.97;43.01
6389;BME280;3227;42.654;23.360;2023-03-14T06:11:22;94461.31;;;10.14;42.91
6389;BME280;3227;42.654;23.360;2023-03-14T06:13:51;94449.38;;;10.30;42.32
6389;BME280;3227;42.654;23.360;2023-03-14T06:16:19;94458.78;;;10.52;42.47
6389;BME280;3227;42.654;23.360;2023-03-14T06:18:45;94461.31;;;10.58;42.21
6389;BME280;3227;42.654;23.360;2023-03-14T06:21:14;94423.75;;;10.15;42.26
6389;BME280;3227;42.654;23.360;2023-03-14T06:23:41;94464.75;;;10.10;41.62
6389;BME280;3227;42.654;23.360;2023-03-14T06:26:08;94468.97;;;9.91;43.58
6389;BME280;3227;42.654;23.360;2023-03-14T06:28:36;94467.28;;;9.98;44.12
6389;BME280;3227;42.654;23.360;2023-03-14T06:31:03;94475.00;;;10.30;46.94
6389;BME280;3227;42.654;23.360;2023-03-14T06:33:30;94451.09;;;10.34;43.86
6389;BME280;3227;42.654;23.360;2023-03-14T06:35:57;94467.31;;;10.68;42.98
6389;BME280;3227;42.654;23.360;2023-03-14T06:38:24;94469.81;;;10.91;44.27
6389;BME280;3227;42.654;23.360;2023-03-14T06:40:51;94478.28;;;11.14;44.23
6389;BME280;3227;42.654;23.360;2023-03-14T06:43:17;94401.47;;;10.84;42.92
6389;BME280;3227;42.654;23.360;2023-03-14T06:45:46;94466.31;;;11.15;44.41
6389;BME280;3227;42.654;23.360;2023-03-14T06:48:12;94470.50;;;11.37;41.71
6389;BME280;3227;42.654;23.360;2023-03-14T06:50:39;94456.69;;;11.67;41.27
6389;BME280;3227;42.654;23.360;2023-03-14T06:53:06;94459.19;;;11.84;39.46
6389;BME280;3227;42.654;23.360;2023-03-14T06:55:33;94445.63;;;11.59;38.49
6389;BME280;3227;42.654;23.360;2023-03-14T06:57:59;94421.75;;;11.37;40.49
6389;BME280;3227;42.654;23.360;2023-03-14T07:00:26;94445.69;;;11.39;40.17
6389;BME280;3227;42.654;23.360;2023-03-14T07:02:55;94449.22;;;11.15;40.01
6389;BME280;3227;42.654;23.360;2023-03-14T07:05:21;94438.06;;;11.24;40.21
6389;BME280;3227;42.654;23.360;2023-03-14T07:07:48;94438.00;;;11.39;39.08
6389;BME280;3227;42.654;23.360;2023-03-14T07:10:16;94439.72;;;11.44;40.00
6389;BME280;3227;42.654;23.360;2023-03-14T07:12:43;94414.19;;;11.16;39.09
6389;BME280;3227;42.654;23.360;2023-03-14T07:15:10;94434.78;;;10.93;39.09
6389;BME280;3227;42.654;23.360;2023-03-14T07:17:37;94385.31;;;10.57;38.69
6389;BME280;3227;42.654;23.360;2023-03-14T07:20:06;94427.13;;;10.73;39.11
6389;BME280;3227;42.654;23.360;2023-03-14T07:22:34;94368.28;;;10.15;39.58
6389;BME280;3227;42.654;23.360;2023-03-14T07:25:01;94420.34;;;10.08;40.13
6389;BME280;3227;42.654;23.360;2023-03-14T07:27:28;94433.13;;;9.90;40.55
6389;BME280;3227;42.654;23.360;2023-03-14T07:29:55;94421.16;;;9.54;41.48
6389;BME280;3227;42.654;23.360;2023-03-14T07:32:21;94426.31;;;9.92;42.13
6389;BME280;3227;42.654;23.360;2023-03-14T07:34:48;94416.94;;;10.30;42.15
6389;BME280;3227;42.654;23.360;2023-03-14T07:37:17;94417.81;;;10.23;41.10
6389;BME280;3227;42.654;23.360;2023-03-14T07:39:44;94414.41;;;10.18;41.08
6389;BME280;3227;42.654;23.360;2023-03-14T07:42:11;94416.13;;;10.28;41.71
6389;BME280;3227;42.654;23.360;2023-03-14T07:44:40;94385.41;;;10.19;41.28
6389;BME280;3227;42.654;23.360;2023-03-14T07:47:07;94405.88;;;10.36;41.09
6389;BME280;3227;42.654;23.360;2023-03-14T07:49:34;94405.88;;;10.35;41.98
6389;BME280;3227;42.654;23.360;2023-03-14T07:52:01;94405.03;;;10.37;42.82
6389;BME280;3227;42.654;23.360;2023-03-14T07:54:29;94405.03;;;10.37;41.38
6389;BME280;3227;42.654;23.360;2023-03-14T07:56:56;94399.00;;;10.50;41.40
6389;BME280;3227;42.654;23.360;2023-03-14T07:59:26;94364.03;;;10.31;41.06
6389;BME280;3227;42.654;23.360;2023-03-14T08:01:53;94360.56;;;10.50;40.89
6389;BME280;3227;42.654;23.360;2023-03-14T08:04:19;94413.47;;;10.73;40.31
6389;BME280;3227;42.654;23.360;2023-03-14T08:06:46;94406.59;;;10.84;40.25
6389;BME280;3227;42.654;23.360;2023-03-14T08:09:13;94410.78;;;11.11;40.71
6389;BME280;3227;42.654;23.360;2023-03-14T08:11:42;94376.59;;;11.07;38.89
6389;BME280;3227;42.654;23.360;2023-03-14T08:14:09;94408.19;;;11.18;39.36
6389;BME280;3227;42.654;23.360;2023-03-14T08:16:36;94403.97;;;11.05;38.49
6389;BME280;3227;42.654;23.360;2023-03-14T08:19:08;94405.66;;;11.06;39.17
6389;BME280;3227;42.654;23.360;2023-03-14T08:21:35;94406.41;;;11.35;39.95
6389;BME280;3227;42.654;23.360;2023-03-14T08:24:02;94399.38;;;11.62;38.64
6389;BME280;3227;42.654;23.360;2023-03-14T08:26:29;94402.81;;;11.64;38.09
6389;BME280;3227;42.654;23.360;2023-03-14T08:28:57;94401.09;;;11.66;38.53
6389;BME280;3227;42.654;23.360;2023-03-14T08:31:24;94395.97;;;11.64;38.55
6389;BME280;3227;42.654;23.360;2023-03-14T08:33:51;94376.25;;;11.69;37.35
6389;BME280;3227;42.654;23.360;2023-03-14T08:36:19;94388.97;;;11.89;38.30
6389;BME280;3227;42.654;23.360;2023-03-14T08:38:45;94383.69;;;12.07;37.68
6389;BME280;3227;42.654;23.360;2023-03-14T08:41:12;94383.69;;;12.06;37.06
6389;BME280;3227;42.654;23.360;2023-03-14T08:43:39;94382.94;;;11.95;36.42
6389;BME280;3227;42.654;23.360;2023-03-14T08:46:07;94371.13;;;11.68;36.68
6389;BME280;3227;42.654;23.360;2023-03-14T08:48:34;94371.13;;;11.75;36.67
6389;BME280;3227;42.654;23.360;2023-03-14T08:51:05;94356.44;;;11.88;37.38
6389;BME280;3227;42.654;23.360;2023-03-14T08:53:31;94355.38;;;12.15;36.52
6389;BME280;3227;42.654;23.360;2023-03-14T08:55:58;94360.22;;;12.44;37.03
6389;BME280;3227;42.654;23.360;2023-03-14T08:58:25;94352.28;;;12.68;36.18
6389;BME280;3227;42.654;23.360;2023-03-14T09:00:52;94351.44;;;12.68;35.51
6389;BME280;3227;42.654;23.360;2023-03-14T09:03:20;94345.56;;;12.56;35.38
6389;BME280;3227;42.654;23.360;2023-03-14T09:05:48;94340.56;;;12.43;34.40
6389;BME280;3227;42.654;23.360;2023-03-14T09:08:15;94342.38;;;12.33;34.59
6389;BME280;3227;42.654;23.360;2023-03-14T09:10:42;94331.94;;;12.48;36.61
6389;BME280;3227;42.654;23.360;2023-03-14T09:13:09;94332.09;;;12.32;34.51
6389;BME280;3227;42.654;23.360;2023-03-14T09:15:35;94322.81;;;12.18;35.72
6389;BME280;3227;42.654;23.360;2023-03-14T09:18:08;94325.25;;;12.34;35.77
6389;BME280;3227;42.654;23.360;2023-03-14T09:20:36;94318.31;;;12.42;35.72
6389;BME280;3227;42.654;23.360;2023-03-14T09:23:02;94306.16;;;12.56;34.62
6389;BME280;3227;42.654;23.360;2023-03-14T09:25:29;94310.06;;;12.87;34.48
6389;BME280;3227;42.654;23.360;2023-03-14T09:27:56;94305.44;;;13.11;34.56
6389;BME280;3227;42.654;23.360;2023-03-14T09:30:23;94290.75;;;13.22;34.37
6389;BME280;3227;42.654;23.360;2023-03-14T09:32:50;94284.69;;;13.26;33.77
6389;BME280;3227;42.654;23.360;2023-03-14T09:35:16;94284.69;;;13.27;33.00
6389;BME280;3227;42.654;23.360;2023-03-14T09:37:44;94274.59;;;13.14;32.11
6389;BME280;3227;42.654;23.360;2023-03-14T09:40:13;94289.44;;;12.92;32.49
6389;BME280;3227;42.654;23.360;2023-03-14T09:42:41;94271.53;;;12.84;33.57
6389;BME280;3227;42.654;23.360;2023-03-14T09:45:13;94272.13;;;13.03;33.79
6389;BME280;3227;42.654;23.360;2023-03-14T09:47:43;94240.69;;;12.83;32.16
6389;BME280;3227;42.654;23.360;2023-03-14T09:50:13;94246.81;;;12.74;33.54
6389;BME280;3227;42.654;23.360;2023-03-14T09:52:42;94253.50;;;12.86;33.95
6389;BME280;3227;42.654;23.360;2023-03-14T09:55:16;94237.69;;;12.49;33.90
6389;BME280;3227;42.654;23.360;2023-03-14T09:57:45;94248.72;;;12.58;34.63
6389;BME280;3227;42.654;23.360;2023-03-14T10:00:16;94245.63;;;12.31;34.62
6389;BME280;3227;42.654;23.360;2023-03-14T10:02:47;94239.53;;;12.38;35.34
6389;BME280;3227;42.654;23.360;2023-03-14T10:05:18;94240.44;;;12.35;34.73
6389;BME280;3227;42.654;23.360;2023-03-14T10:07:50;94227.53;;;12.40;35.25
6389;BME280;3227;42.654;23.360;2023-03-14T10:10:20;94225.72;;;12.46;34.99
6389;BME280;3227;42.654;23.360;2023-03-14T10:12:55;94222.16;;;12.58;35.46
6389;BME280;3227;42.654;23.360;2023-03-14T10:15:25;94216.94;;;12.64;35.80
6389;BME280;3227;42.654;23.360;2023-03-14T10:17:52;94205.94;;;12.54;36.05
6389;BME280;3227;42.654;23.360;2023-03-14T10:20:33;94207.50;;;12.66;36.75
6389;BME280;3227;42.654;23.360;2023-03-14T10:23:03;94203.84;;;12.82;35.53
6389;BME280;3227;42.654;23.360;2023-03-14T10:25:33;94162.75;;;12.79;35.75
6389;BME280;3227;42.654;23.360;2023-03-14T10:28:01;94184.56;;;13.11;35.72
6389;BME280;3227;42.654;23.360;2023-03-14T10:30:34;94158.09;;;13.04;36.05
6389;BME280;3227;42.654;23.360;2023-03-14T10:33:10;94178.47;;;13.18;35.79
6389;BME280;3227;42.654;23.360;2023-03-14T10:35:37;94166.44;;;13.21;36.38
6389;BME280;3227;42.654;23.360;2023-03-14T10:38:04;94148.94;;;13.42;35.78
6389;BME280;3227;42.654;23.360;2023-03-14T10:40:37;94162.31;;;13.60;36.08
6389;BME280;3227;42.654;23.360;2023-03-14T10:43:05;94146.84;;;13.63;35.38
6389;BME280;3227;42.654;23.360;2023-03-14T10:45:35;94146.94;;;13.57;35.95
6389;BME280;3227;42.654;23.360;2023-03-14T10:48:17;94140.94;;;13.58;36.46
6389;BME280;3227;42.654;23.360;2023-03-14T10:50:56;94125.50;;;13.58;36.48
6389;BME280;3227;42.654;23.360;2023-03-14T10:53:23;94126.91;;;13.75;36.04
6389;BME280;3227;42.654;23.360;2023-03-14T10:55:52;94117.94;;;13.49;36.53
6389;BME280;3227;42.654;23.360;2023-03-14T10:58:21;94111.41;;;13.30;36.82
6389;BME280;3227;42.654;23.360;2023-03-14T11:00:53;94043.56;;;12.83;36.40
6389;BME280;3227;42.654;23.360;2023-03-14T11:03:26;94092.38;;;13.39;36.53
6389;BME280;3227;42.654;23.360;2023-03-14T11:05:57;94086.22;;;13.47;36.49
6389;BME280;3227;42.654;23.360;2023-03-14T11:08:31;94082.53;;;13.59;35.92
6389;BME280;3227;42.654;23.360;2023-03-14T11:11:11;94046.47;;;13.62;35.84
6389;BME280;3227;42.654;23.360;2023-03-14T11:13:44;94064.78;;;13.91;35.52
6389;BME280;3227;42.654;23.360;2023-03-14T11:16:18;94061.97;;;14.00;34.93
6389;BME280;3227;42.654;23.360;2023-03-14T11:19:06;94055.09;;;14.01;35.79
6389;BME280;3227;42.654;23.360;2023-03-14T11:21:44;94025.81;;;14.06;35.77
6389;BME280;3227;42.654;23.360;2023-03-14T11:24:34;94038.00;;;14.38;34.40
6389;BME280;3227;42.654;23.360;2023-03-14T11:27:17;94025.59;;;14.56;34.47
6389;BME280;3227;42.654;23.360;2023-03-14T11:29:52;94017.28;;;14.80;33.95
6389;BME280;3227;42.654;23.360;2023-03-14T11:32:27;93978.63;;;14.78;33.79
6389;BME280;3227;42.654;23.360;2023-03-14T11:34:56;93985.13;;;14.93;33.81
6389;BME280;3227;42.654;23.360;2023-03-14T11:37:27;93996.13;;;15.32;33.45
6389;BME280;3227;42.654;23.360;2023-03-14T11:40:01;94000.50;;;15.63;32.68
6389;BME280;3227;42.654;23.360;2023-03-14T11:42:32;93979.88;;;15.61;31.79
6389;BME280;3227;42.654;23.360;2023-03-14T11:45:00;93987.69;;;15.58;32.30
6389;BME280;3227;42.654;23.360;2023-03-14T11:47:30;93988.22;;;15.71;31.67
6389;BME280;3227;42.654;23.360;2023-03-14T11:50:03;93956.72;;;15.58;31.97
6389;BME280;3227;42.654;23.360;2023-03-14T11:52:34;93975.78;;;15.54;32.14
6389;BME280;3227;42.654;23.360;2023-03-14T11:55:05;93968.97;;;15.50;32.34
6389;BME280;3227;42.654;23.360;2023-03-14T11:57:37;93969.75;;;15.22;32.28
6389;BME280;3227;42.654;23.360;2023-03-14T12:00:14;93960.06;;;14.98;33.09
6389;BME280;3227;42.654;23.360;2023-03-14T12:02:49;93959.25;;;15.29;32.72
6389;BME280;3227;42.654;23.360;2023-03-14T12:05:39;93948.94;;;15.59;31.69
6389;BME280;3227;42.654;23.360;2023-03-14T12:08:43;93944.66;;;15.88;31.37
6389;BME280;3227;42.654;23.360;2023-03-14T12:11:29;93937.63;;;15.64;31.34
6389;BME280;3227;42.654;23.360;2023-03-14T12:13:58;93928.00;;;15.38;31.68
6389;BME280;3227;42.654;23.360;2023-03-14T12:16:35;93927.38;;;15.30;31.93
6389;BME280;3227;42.654;23.360;2023-03-14T12:19:33;93917.09;;;15.59;31.35
6389;BME280;3227;42.654;23.360;2023-03-14T12:22:21;93889.69;;;15.55;31.68
6389;BME280;3227;42.654;23.360;2023-03-14T12:24:53;93909.88;;;15.70;31.13
6389;BME280;3227;42.654;23.360;2023-03-14T12:27:41;93904.47;;;15.79;31.14
6389;BME280;3227;42.654;23.360;2023-03-14T12:30:17;93900.13;;;16.08;30.96
6389;BME280;3227;42.654;23.360;2023-03-14T12:35:58;93879.84;;;15.95;30.75
6389;BME280;3227;42.654;23.360;2023-03-14T12:38:32;93891.47;;;16.09;30.40
6389;BME280;3227;42.654;23.360;2023-03-14T12:41:13;93884.25;;;16.20;30.59
6389;BME280;3227;42.654;23.360;2023-03-14T12:43:40;93868.66;;;15.95;30.44
6389;BME280;3227;42.654;23.360;2023-03-14T12:46:19;93872.34;;;16.14;30.25
6389;BME280;3227;42.654;23.360;2023-03-14T12:48:47;93871.53;;;16.14;30.20
6389;BME280;3227;42.654;23.360;2023-03-14T12:51:16;93880.56;;;16.27;29.83
6389;BME280;3227;42.654;23.360;2023-03-14T12:53:53;93839.16;;;16.02;29.61
6389;BME280;3227;42.654;23.360;2023-03-14T12:56:27;93851.13;;;16.31;29.65
6389;BME280;3227;42.654;23.360;2023-03-14T12:59:05;93668.19;;;15.37;29.48
6389;BME280;3227;42.654;23.360;2023-03-14T13:01:46;93845.84;;;16.34;29.62
6389;BME280;3227;42.654;23.360;2023-03-14T13:04:14;93828.88;;;16.27;29.58
6389;BME280;3227;42.654;23.360;2023-03-14T13:06:51;93831.94;;;16.38;29.21
6389;BME280;3227;42.654;23.360;2023-03-14T13:12:28;93822.34;;;16.15;29.09
6389;BME280;3227;42.654;23.360;2023-03-14T13:14:59;93825.47;;;16.25;29.27
6389;BME280;3227;42.654;23.360;2023-03-14T13:17:31;93814.44;;;16.46;28.92
6389;BME280;3227;42.654;23.360;2023-03-14T13:20:03;93813.72;;;16.41;29.22
6389;BME280;3227;42.654;23.360;2023-03-14T13:22:34;93784.13;;;16.25;29.29
6389;BME280;3227;42.654;23.360;2023-03-14T13:25:06;93793.47;;;16.29;28.48
6389;BME280;3227;42.654;23.360;2023-03-14T13:27:34;93801.28;;;16.27;28.69
6389;BME280;3227;42.654;23.360;2023-03-14T13:30:15;93791.50;;;16.11;28.76
6389;BME280;3227;42.654;23.360;2023-03-14T13:32:46;93780.72;;;16.23;28.79